KVIH/VIH METAR and TAF weather

Enter ICAO airport designator
Station Type Date Time Source
KVIH METAR 2023/02/05 14:53 UTC NOAA

KVIH 051453Z AUTO 27008KT 10SM CLR 05/01 A3008 RMK AO2 SLP190 T00500006 51020


Station Type Date Time Source
KVIH Decoded METAR 2023/02/05 14:53 UTC NOAA

ROLLA/VICHY ROLLA NATIONAL, MO, United States (KVIH) 38-08N 91-46W 333M
Feb 05, 2023 - 09:53 AM EST / 2023.02.05 1453 UTC
Wind: from the W (270 degrees) at 9 MPH (8 KT):0
Visibility: 10 mile(s):0
Sky conditions: clear
Temperature: 41.0 F (5.0 C)
Dew Point: 33.1 F (0.6 C)
Relative Humidity: 73%
Pressure (altimeter): 30.08 in. Hg (1018 hPa)
Pressure tendency: 0.06 inches (2.0 hPa) higher than three hours ago
ob: KVIH 051453Z AUTO 27008KT 10SM CLR 05/01 A3008 RMK AO2 SLP190 T00500006 51020
cycle: 15

Station Type Date Time Source
KVIH TAF UTC NOAA

Error!

Example: see airport list